Currently 56°F in Riverside (Presidential Park), California, USA
56°F
61°F / 55°F
calm
0.00"
Friday, October 19, 2018 7:20 AM PDT

Riverside (Presidential Park), California Weather Summary
Last 36 Hours

Temperature Winds Hourly Humidity Dewpoint
Time Report Norm Report Norm Max Gusts Precip. Rpt. Norm Rpt. Norm Pressure
1Fri 07:20 AM  56.1°F  60°F  calm  1 mph  3 mph  0.00"  56%  71%  40°F  50°F  30.03"
3Fri 07:10 AM  55.5°F  60°F  3 mph SE  1 mph  3 mph  ----  58%  71%  40°F  50°F  30.03"
Fri 07:00 AM  55.8°F  60°F  calm  1 mph  4 mph  0.00"  58%  71%  40°F  50°F  30.03"
Fri 06:00 AM  56.2°F  60°F  calm  1 mph  3 mph  0.00"  56%  71%  40°F  50°F  30.02"
Fri 05:00 AM  56.9°F  60°F  calm  1 mph  3 mph  0.00"  54%  70%  40°F  50°F  30.01"
Fri 04:00 AM  57.8°F  61°F  2 mph SE  1 mph  5 mph  0.00"  53%  69%  40°F  50°F  30.01"
Fri 03:00 AM  58.5°F  61°F  2 mph SE  1 mph  5 mph  0.00"  53%  69%  41°F  51°F  30.01"
Fri 02:00 AM  59.6°F  62°F  1 mph NW  1 mph  4 mph  0.00"  50%  69%  40°F  51°F  30.02"
Fri 01:00 AM  60.0°F  63°F  2 mph E  1 mph  5 mph  0.00"  52%  67%  41°F  51°F  30.02"
2Fri 12:10 AM  61.3°F  64°F  1 mph E  1 mph  3 mph  ----  50%  66%  42°F  52°F  30.03"
Fri 12:00 AM  61.2°F  64°F  1 mph SE  1 mph  4 mph  0.00"  50%  65%  42°F  52°F  30.03"
Thu 11:00 PM  63.2°F  65°F  1 mph NE  1 mph  4 mph  0.00"  46%  63%  42°F  52°F  30.04"
Thu 10:00 PM  65.8°F  67°F  3 mph SE  1 mph  5 mph  0.00"  42%  60%  41°F  52°F  30.03"
Thu 09:00 PM  69.1°F  69°F  3 mph E  2 mph  6 mph  0.00"  34%  57%  39°F  52°F  30.03"
Thu 08:00 PM  74.8°F  71°F  calm  3 mph  9 mph  0.00"  25%  53%  36°F  52°F  30.02"
Thu 07:00 PM  78.5°F  74°F  calm  4 mph  12 mph  0.00"  17%  47%  29°F  52°F  29.99"
Thu 06:00 PM  82.3°F  77°F  5 mph W  5 mph  14 mph  0.00"  15%  41%  28°F  51°F  29.97"
Thu 05:00 PM  85.6°F  80°F  5 mph W  7 mph  10 mph  0.00"  13%  36%  28°F  50°F  29.96"
Thu 04:00 PM  84.8°F  81°F  2 mph SE  6 mph  8 mph  0.00"  13%  33%  26°F  49°F  29.96"
Thu 03:00 PM  83.6°F  81°F  3 mph NW  5 mph  9 mph  0.00"  16%  33%  32°F  48°F  29.96"
Thu 02:00 PM  82.8°F  80°F  2 mph SE  5 mph  11 mph  0.00"  18%  34%  33°F  48°F  29.98"
Thu 01:00 PM  83.7°F  79°F  5 mph S  4 mph  13 mph  0.00"  16%  37%  31°F  50°F  30.01"
Thu 12:00 PM  80.7°F  77°F  3 mph NW  3 mph  9 mph  0.00"  19%  41%  33°F  51°F  30.06"
Thu 11:00 AM  78.7°F  74°F  calm  3 mph  4 mph  0.00"  24%  48%  37°F  52°F  30.07"
Thu 10:00 AM  70.3°F  70°F  calm  2 mph  4 mph  0.00"  44%  56%  47°F  53°F  30.09"
Thu 09:00 AM  61.1°F  64°F  calm  1 mph  2 mph  0.00"  55%  68%  44°F  53°F  30.09"
Thu 08:00 AM  54.6°F  61°F  calm  1 mph  3 mph  0.00"  65%  73%  43°F  52°F  30.08"
Thu 07:00 AM  53.7°F  60°F  calm  1 mph  4 mph  0.00"  65%  73%  42°F  51°F  30.07"
Thu 06:00 AM  53.8°F  60°F  2 mph E  1 mph  3 mph  0.00"  66%  72%  42°F  51°F  30.07"
Thu 05:00 AM  53.7°F  60°F  calm  1 mph  4 mph  0.00"  66%  71%  42°F  51°F  30.05"
Thu 04:00 AM  54.8°F  61°F  calm  1 mph  3 mph  0.00"  64%  71%  42°F  51°F  30.05"
Thu 03:00 AM  55.4°F  61°F  calm  1 mph  4 mph  0.00"  64%  70%  43°F  51°F  30.05"
Thu 02:00 AM  56.7°F  62°F  2 mph E  1 mph  3 mph  0.00"  62%  70%  43°F  52°F  30.06"
Thu 01:00 AM  58.7°F  63°F  calm  1 mph  3 mph  0.00"  60%  68%  44°F  52°F  30.06"
Thu 12:00 AM  59.6°F  64°F  calm  1 mph  3 mph  0.00"  57%  67%  44°F  52°F  30.06"
Wed 11:00 PM  61.5°F  65°F  2 mph E  1 mph  4 mph  0.00"  53%  64%  44°F  52°F  30.06"
Wed 10:00 PM  64.1°F  67°F  3 mph E  1 mph  4 mph  0.00"  47%  61%  43°F  53°F  30.05"
Wed 09:00 PM  67.2°F  69°F  calm  2 mph  5 mph  0.00"  43%  58%  43°F  53°F  30.04"
Wed 08:00 PM  71.1°F  71°F  calm  3 mph  6 mph  0.00"  34%  53%  40°F  53°F  30.02"

  1. Current weather data. No green row appears if the current weather data is also the high or low for the current day.
  2. High temperature for the current day.
  3. Low temperature for the current day.

The Riverside (Presidential Park), California weather pages are a service of WeatherCurrents.
Copyright ©Fri Oct 19 07:20:48 PDT 2018  WeatherCurrents. All rights reserved. - Submit questions and comments - Privacy Policy

This page automatically refreshes every 10 minutes.